sensor_id;sensor_type;location;lat;lon;timestamp;P1;durP1;ratioP1;P2;durP2;ratioP2
23596;SDS011;40226;50.874;4.394;2024-03-02T00:00:08;0.10;;;0.10;;
23596;SDS011;40226;50.874;4.394;2024-03-02T00:02:43;0.32;;;0.32;;
23596;SDS011;40226;50.874;4.394;2024-03-02T00:05:13;0.10;;;0.10;;
23596;SDS011;40226;50.874;4.394;2024-03-02T00:07:47;0.10;;;0.10;;
23596;SDS011;40226;50.874;4.394;2024-03-02T00:10:31;0.30;;;0.30;;
23596;SDS011;40226;50.874;4.394;2024-03-02T00:13:04;0.13;;;0.13;;
23596;SDS011;40226;50.874;4.394;2024-03-02T00:17:58;0.10;;;0.10;;
23596;SDS011;40226;50.874;4.394;2024-03-02T00:20:24;0.10;;;0.10;;
23596;SDS011;40226;50.874;4.394;2024-03-02T00:22:58;0.10;;;0.10;;
23596;SDS011;40226;50.874;4.394;2024-03-02T00:25:38;0.10;;;0.10;;
23596;SDS011;40226;50.874;4.394;2024-03-02T00:28:13;0.10;;;0.10;;
23596;SDS011;40226;50.874;4.394;2024-03-02T00:35:58;0.28;;;0.28;;
23596;SDS011;40226;50.874;4.394;2024-03-02T00:38:25;0.10;;;0.10;;
23596;SDS011;40226;50.874;4.394;2024-03-02T00:40:51;0.43;;;0.43;;
23596;SDS011;40226;50.874;4.394;2024-03-02T00:45:52;0.10;;;0.10;;
23596;SDS011;40226;50.874;4.394;2024-03-02T00:48:18;0.10;;;0.10;;
23596;SDS011;40226;50.874;4.394;2024-03-02T00:50:44;0.20;;;0.20;;
23596;SDS011;40226;50.874;4.394;2024-03-02T00:53:10;0.10;;;0.10;;
23596;SDS011;40226;50.874;4.394;2024-03-02T00:55:36;0.10;;;0.10;;
23596;SDS011;40226;50.874;4.394;2024-03-02T00:58:03;0.10;;;0.10;;
23596;SDS011;40226;50.874;4.394;2024-03-02T01:00:28;0.10;;;0.10;;
23596;SDS011;40226;50.874;4.394;2024-03-02T01:02:54;0.22;;;0.22;;
23596;SDS011;40226;50.874;4.394;2024-03-02T01:05:20;0.38;;;0.30;;
23596;SDS011;40226;50.874;4.394;2024-03-02T01:07:45;0.10;;;0.10;;
23596;SDS011;40226;50.874;4.394;2024-03-02T01:10:11;0.20;;;0.20;;
23596;SDS011;40226;50.874;4.394;2024-03-02T01:12:37;0.10;;;0.10;;
23596;SDS011;40226;50.874;4.394;2024-03-02T01:15:03;0.15;;;0.15;;
23596;SDS011;40226;50.874;4.394;2024-03-02T01:17:33;0.10;;;0.10;;
23596;SDS011;40226;50.874;4.394;2024-03-02T01:19:58;0.10;;;0.10;;
23596;SDS011;40226;50.874;4.394;2024-03-02T01:22:24;0.10;;;0.10;;
23596;SDS011;40226;50.874;4.394;2024-03-02T01:24:50;0.20;;;0.20;;
23596;SDS011;40226;50.874;4.394;2024-03-02T01:27:16;0.10;;;0.10;;
23596;SDS011;40226;50.874;4.394;2024-03-02T01:29:44;0.15;;;0.15;;
23596;SDS011;40226;50.874;4.394;2024-03-02T01:32:12;0.10;;;0.10;;
23596;SDS011;40226;50.874;4.394;2024-03-02T01:37:07;0.10;;;0.10;;
23596;SDS011;40226;50.874;4.394;2024-03-02T01:39:34;0.10;;;0.10;;
23596;SDS011;40226;50.874;4.394;2024-03-02T01:42:05;0.10;;;0.10;;
23596;SDS011;40226;50.874;4.394;2024-03-02T01:44:43;5.82;;;1.90;;
23596;SDS011;40226;50.874;4.394;2024-03-02T01:47:09;0.10;;;0.10;;
23596;SDS011;40226;50.874;4.394;2024-03-02T01:49:48;1.08;;;0.90;;
23596;SDS011;40226;50.874;4.394;2024-03-02T01:52:14;0.10;;;0.10;;
23596;SDS011;40226;50.874;4.394;2024-03-02T01:54:47;0.20;;;0.20;;
23596;SDS011;40226;50.874;4.394;2024-03-02T01:57:13;0.20;;;0.20;;
23596;SDS011;40226;50.874;4.394;2024-03-02T01:59:38;0.10;;;0.10;;
23596;SDS011;40226;50.874;4.394;2024-03-02T02:02:04;0.20;;;0.20;;
23596;SDS011;40226;50.874;4.394;2024-03-02T02:04:29;0.10;;;0.10;;
23596;SDS011;40226;50.874;4.394;2024-03-02T02:06:55;0.10;;;0.10;;
23596;SDS011;40226;50.874;4.394;2024-03-02T02:09:23;0.10;;;0.10;;
23596;SDS011;40226;50.874;4.394;2024-03-02T02:11:50;0.45;;;0.45;;
23596;SDS011;40226;50.874;4.394;2024-03-02T02:14:16;0.13;;;0.13;;
23596;SDS011;40226;50.874;4.394;2024-03-02T02:16:41;0.20;;;0.20;;
23596;SDS011;40226;50.874;4.394;2024-03-02T02:19:07;0.47;;;0.47;;
23596;SDS011;40226;50.874;4.394;2024-03-02T02:21:33;0.22;;;0.22;;
23596;SDS011;40226;50.874;4.394;2024-03-02T02:23:58;0.20;;;0.20;;
23596;SDS011;40226;50.874;4.394;2024-03-02T02:26:24;0.10;;;0.10;;
23596;SDS011;40226;50.874;4.394;2024-03-02T02:28:50;0.10;;;0.10;;
23596;SDS011;40226;50.874;4.394;2024-03-02T02:31:15;0.10;;;0.10;;
23596;SDS011;40226;50.874;4.394;2024-03-02T02:33:41;0.10;;;0.10;;
23596;SDS011;40226;50.874;4.394;2024-03-02T02:36:08;0.10;;;0.10;;
23596;SDS011;40226;50.874;4.394;2024-03-02T02:38:37;0.55;;;0.55;;
23596;SDS011;40226;50.874;4.394;2024-03-02T02:41:06;0.10;;;0.10;;
23596;SDS011;40226;50.874;4.394;2024-03-02T02:43:32;0.10;;;0.10;;
23596;SDS011;40226;50.874;4.394;2024-03-02T02:45:57;0.10;;;0.10;;
23596;SDS011;40226;50.874;4.394;2024-03-02T02:48:23;0.20;;;0.20;;
23596;SDS011;40226;50.874;4.394;2024-03-02T02:50:50;0.75;;;0.75;;
23596;SDS011;40226;50.874;4.394;2024-03-02T02:53:16;0.10;;;0.10;;
23596;SDS011;40226;50.874;4.394;2024-03-02T02:55:41;0.10;;;0.10;;
23596;SDS011;40226;50.874;4.394;2024-03-02T02:58:10;0.10;;;0.10;;
23596;SDS011;40226;50.874;4.394;2024-03-02T03:00:37;0.20;;;0.20;;
23596;SDS011;40226;50.874;4.394;2024-03-02T03:03:02;0.17;;;0.17;;
23596;SDS011;40226;50.874;4.394;2024-03-02T03:05:28;0.10;;;0.10;;
23596;SDS011;40226;50.874;4.394;2024-03-02T03:07:54;0.10;;;0.10;;
23596;SDS011;40226;50.874;4.394;2024-03-02T03:10:19;0.10;;;0.10;;
23596;SDS011;40226;50.874;4.394;2024-03-02T03:12:48;0.30;;;0.30;;
23596;SDS011;40226;50.874;4.394;2024-03-02T03:15:14;0.88;;;0.88;;
23596;SDS011;40226;50.874;4.394;2024-03-02T03:17:41;0.65;;;0.43;;
23596;SDS011;40226;50.874;4.394;2024-03-02T03:20:07;0.17;;;0.17;;
23596;SDS011;40226;50.874;4.394;2024-03-02T03:22:36;0.10;;;0.10;;
23596;SDS011;40226;50.874;4.394;2024-03-02T03:25:02;0.20;;;0.20;;
23596;SDS011;40226;50.874;4.394;2024-03-02T03:27:28;0.10;;;0.10;;
23596;SDS011;40226;50.874;4.394;2024-03-02T03:29:54;0.10;;;0.10;;
23596;SDS011;40226;50.874;4.394;2024-03-02T03:32:20;0.10;;;0.10;;
23596;SDS011;40226;50.874;4.394;2024-03-02T03:34:45;0.10;;;0.10;;
23596;SDS011;40226;50.874;4.394;2024-03-02T03:37:13;0.10;;;0.10;;
23596;SDS011;40226;50.874;4.394;2024-03-02T03:39:38;0.20;;;0.20;;
23596;SDS011;40226;50.874;4.394;2024-03-02T03:42:04;0.30;;;0.30;;
23596;SDS011;40226;50.874;4.394;2024-03-02T03:44:29;0.10;;;0.10;;
23596;SDS011;40226;50.874;4.394;2024-03-02T03:46:55;0.10;;;0.10;;
23596;SDS011;40226;50.874;4.394;2024-03-02T03:49:21;0.10;;;0.10;;
23596;SDS011;40226;50.874;4.394;2024-03-02T03:51:46;0.20;;;0.20;;
23596;SDS011;40226;50.874;4.394;2024-03-02T03:54:12;0.10;;;0.10;;
23596;SDS011;40226;50.874;4.394;2024-03-02T03:56:37;0.10;;;0.10;;
23596;SDS011;40226;50.874;4.394;2024-03-02T03:59:03;0.20;;;0.20;;
23596;SDS011;40226;50.874;4.394;2024-03-02T04:01:29;0.20;;;0.20;;
23596;SDS011;40226;50.874;4.394;2024-03-02T04:03:56;0.10;;;0.10;;
23596;SDS011;40226;50.874;4.394;2024-03-02T04:06:22;0.20;;;0.20;;
23596;SDS011;40226;50.874;4.394;2024-03-02T04:08:48;0.10;;;0.10;;
23596;SDS011;40226;50.874;4.394;2024-03-02T04:11:13;0.22;;;0.22;;
23596;SDS011;40226;50.874;4.394;2024-03-02T04:13:39;0.20;;;0.20;;
23596;SDS011;40226;50.874;4.394;2024-03-02T04:16:05;0.10;;;0.10;;
23596;SDS011;40226;50.874;4.394;2024-03-02T04:18:30;0.10;;;0.10;;
23596;SDS011;40226;50.874;4.394;2024-03-02T04:20:57;1.17;;;1.17;;
23596;SDS011;40226;50.874;4.394;2024-03-02T04:23:24;0.10;;;0.10;;
23596;SDS011;40226;50.874;4.394;2024-03-02T04:25:53;0.30;;;0.30;;
23596;SDS011;40226;50.874;4.394;2024-03-02T04:28:18;0.10;;;0.10;;
23596;SDS011;40226;50.874;4.394;2024-03-02T04:30:44;0.10;;;0.10;;
23596;SDS011;40226;50.874;4.394;2024-03-02T04:33:09;0.10;;;0.10;;
23596;SDS011;40226;50.874;4.394;2024-03-02T04:35:35;0.10;;;0.10;;
23596;SDS011;40226;50.874;4.394;2024-03-02T04:38:01;0.20;;;0.20;;
23596;SDS011;40226;50.874;4.394;2024-03-02T04:40:27;0.10;;;0.10;;
23596;SDS011;40226;50.874;4.394;2024-03-02T04:42:53;0.15;;;0.15;;
23596;SDS011;40226;50.874;4.394;2024-03-02T04:45:19;0.10;;;0.10;;
23596;SDS011;40226;50.874;4.394;2024-03-02T04:47:44;0.17;;;0.17;;
23596;SDS011;40226;50.874;4.394;2024-03-02T04:50:10;0.30;;;0.30;;
23596;SDS011;40226;50.874;4.394;2024-03-02T04:52:36;0.10;;;0.10;;
23596;SDS011;40226;50.874;4.394;2024-03-02T04:55:02;0.13;;;0.13;;
23596;SDS011;40226;50.874;4.394;2024-03-02T04:57:46;0.10;;;0.10;;
23596;SDS011;40226;50.874;4.394;2024-03-02T05:00:12;0.10;;;0.10;;
23596;SDS011;40226;50.874;4.394;2024-03-02T05:02:38;0.20;;;0.20;;
23596;SDS011;40226;50.874;4.394;2024-03-02T05:05:04;0.20;;;0.20;;
23596;SDS011;40226;50.874;4.394;2024-03-02T05:07:29;0.10;;;0.10;;
23596;SDS011;40226;50.874;4.394;2024-03-02T05:09:55;0.20;;;0.20;;
23596;SDS011;40226;50.874;4.394;2024-03-02T05:12:20;0.10;;;0.10;;
23596;SDS011;40226;50.874;4.394;2024-03-02T05:15:05;0.50;;;0.50;;
23596;SDS011;40226;50.874;4.394;2024-03-02T05:17:32;0.10;;;0.10;;
23596;SDS011;40226;50.874;4.394;2024-03-02T05:19:57;0.15;;;0.15;;
23596;SDS011;40226;50.874;4.394;2024-03-02T05:22:23;0.10;;;0.10;;
23596;SDS011;40226;50.874;4.394;2024-03-02T05:24:49;0.10;;;0.10;;
23596;SDS011;40226;50.874;4.394;2024-03-02T05:27:15;0.20;;;0.20;;
23596;SDS011;40226;50.874;4.394;2024-03-02T05:29:40;0.45;;;0.45;;
23596;SDS011;40226;50.874;4.394;2024-03-02T05:32:06;0.20;;;0.20;;
23596;SDS011;40226;50.874;4.394;2024-03-02T05:34:32;0.10;;;0.10;;
23596;SDS011;40226;50.874;4.394;2024-03-02T05:36:59;0.10;;;0.10;;
23596;SDS011;40226;50.874;4.394;2024-03-02T05:39:25;3.00;;;1.17;;
23596;SDS011;40226;50.874;4.394;2024-03-02T05:41:50;0.20;;;0.20;;
23596;SDS011;40226;50.874;4.394;2024-03-02T05:44:16;0.13;;;0.13;;
23596;SDS011;40226;50.874;4.394;2024-03-02T05:46:43;0.32;;;0.32;;
23596;SDS011;40226;50.874;4.394;2024-03-02T05:49:09;0.10;;;0.10;;
23596;SDS011;40226;50.874;4.394;2024-03-02T05:51:35;0.20;;;0.20;;
23596;SDS011;40226;50.874;4.394;2024-03-02T05:54:00;0.10;;;0.10;;
23596;SDS011;40226;50.874;4.394;2024-03-02T05:56:26;0.10;;;0.10;;
23596;SDS011;40226;50.874;4.394;2024-03-02T05:58:52;0.28;;;0.28;;
23596;SDS011;40226;50.874;4.394;2024-03-02T06:01:37;0.20;;;0.20;;
23596;SDS011;40226;50.874;4.394;2024-03-02T06:04:02;0.13;;;0.13;;
23596;SDS011;40226;50.874;4.394;2024-03-02T06:06:28;1.35;;;1.20;;
23596;SDS011;40226;50.874;4.394;2024-03-02T06:08:53;0.13;;;0.13;;
23596;SDS011;40226;50.874;4.394;2024-03-02T06:11:19;0.20;;;0.20;;
23596;SDS011;40226;50.874;4.394;2024-03-02T06:13:45;0.20;;;0.20;;
23596;SDS011;40226;50.874;4.394;2024-03-02T06:16:11;4.00;;;1.38;;
23596;SDS011;40226;50.874;4.394;2024-03-02T06:18:37;0.20;;;0.20;;
23596;SDS011;40226;50.874;4.394;2024-03-02T06:21:02;0.10;;;0.10;;
23596;SDS011;40226;50.874;4.394;2024-03-02T06:23:28;0.20;;;0.20;;
23596;SDS011;40226;50.874;4.394;2024-03-02T06:25:54;0.20;;;0.20;;
23596;SDS011;40226;50.874;4.394;2024-03-02T06:28:20;0.20;;;0.20;;
23596;SDS011;40226;50.874;4.394;2024-03-02T06:30:45;0.20;;;0.20;;
23596;SDS011;40226;50.874;4.394;2024-03-02T06:33:11;0.20;;;0.20;;
23596;SDS011;40226;50.874;4.394;2024-03-02T06:35:37;0.13;;;0.13;;
23596;SDS011;40226;50.874;4.394;2024-03-02T06:38:03;0.45;;;0.45;;
23596;SDS011;40226;50.874;4.394;2024-03-02T06:40:28;0.13;;;0.13;;
23596;SDS011;40226;50.874;4.394;2024-03-02T06:42:54;7.70;;;2.20;;
23596;SDS011;40226;50.874;4.394;2024-03-02T06:45:20;7.15;;;1.85;;
23596;SDS011;40226;50.874;4.394;2024-03-02T06:47:45;9.65;;;2.35;;
23596;SDS011;40226;50.874;4.394;2024-03-02T06:50:11;8.60;;;2.42;;
23596;SDS011;40226;50.874;4.394;2024-03-02T06:52:37;11.48;;;2.28;;
23596;SDS011;40226;50.874;4.394;2024-03-02T06:55:02;13.40;;;4.65;;
23596;SDS011;40226;50.874;4.394;2024-03-02T06:57:29;5.43;;;1.67;;
23596;SDS011;40226;50.874;4.394;2024-03-02T06:59:55;7.55;;;1.92;;
23596;SDS011;40226;50.874;4.394;2024-03-02T07:02:23;11.40;;;2.22;;
23596;SDS011;40226;50.874;4.394;2024-03-02T07:04:52;11.32;;;2.05;;
23596;SDS011;40226;50.874;4.394;2024-03-02T07:07:18;12.90;;;2.20;;
23596;SDS011;40226;50.874;4.394;2024-03-02T07:09:44;7.05;;;1.80;;
23596;SDS011;40226;50.874;4.394;2024-03-02T07:12:09;7.75;;;2.28;;
23596;SDS011;40226;50.874;4.394;2024-03-02T07:14:35;11.40;;;2.17;;
23596;SDS011;40226;50.874;4.394;2024-03-02T07:17:35;8.30;;;2.05;;
23596;SDS011;40226;50.874;4.394;2024-03-02T07:20:02;8.85;;;1.88;;
23596;SDS011;40226;50.874;4.394;2024-03-02T07:22:29;6.18;;;1.50;;
23596;SDS011;40226;50.874;4.394;2024-03-02T07:24:54;5.88;;;1.70;;
23596;SDS011;40226;50.874;4.394;2024-03-02T07:27:20;10.75;;;1.65;;
23596;SDS011;40226;50.874;4.394;2024-03-02T07:29:46;6.70;;;1.95;;
23596;SDS011;40226;50.874;4.394;2024-03-02T07:32:12;8.43;;;1.88;;
23596;SDS011;40226;50.874;4.394;2024-03-02T07:34:38;8.18;;;1.52;;
23596;SDS011;40226;50.874;4.394;2024-03-02T07:37:03;6.05;;;1.60;;
23596;SDS011;40226;50.874;4.394;2024-03-02T07:39:29;10.10;;;1.80;;
23596;SDS011;40226;50.874;4.394;2024-03-02T07:41:55;8.57;;;1.85;;
23596;SDS011;40226;50.874;4.394;2024-03-02T07:44:21;12.18;;;1.83;;
23596;SDS011;40226;50.874;4.394;2024-03-02T07:46:47;12.80;;;2.47;;
23596;SDS011;40226;50.874;4.394;2024-03-02T07:49:16;9.57;;;1.58;;
23596;SDS011;40226;50.874;4.394;2024-03-02T07:51:42;10.25;;;1.80;;
23596;SDS011;40226;50.874;4.394;2024-03-02T07:54:08;6.70;;;2.00;;
23596;SDS011;40226;50.874;4.394;2024-03-02T07:56:34;10.05;;;2.03;;
23596;SDS011;40226;50.874;4.394;2024-03-02T07:59:00;11.70;;;2.22;;
23596;SDS011;40226;50.874;4.394;2024-03-02T08:01:29;9.80;;;2.10;;
23596;SDS011;40226;50.874;4.394;2024-03-02T08:03:56;13.45;;;2.30;;
23596;SDS011;40226;50.874;4.394;2024-03-02T08:06:23;10.27;;;2.50;;
23596;SDS011;40226;50.874;4.394;2024-03-02T08:08:52;8.68;;;2.28;;
23596;SDS011;40226;50.874;4.394;2024-03-02T08:11:19;10.75;;;2.08;;
23596;SDS011;40226;50.874;4.394;2024-03-02T08:13:45;10.95;;;1.90;;
23596;SDS011;40226;50.874;4.394;2024-03-02T08:16:11;8.70;;;2.08;;
23596;SDS011;40226;50.874;4.394;2024-03-02T08:18:36;6.70;;;1.90;;
23596;SDS011;40226;50.874;4.394;2024-03-02T08:21:02;8.80;;;1.90;;
23596;SDS011;40226;50.874;4.394;2024-03-02T08:23:28;7.38;;;1.90;;
23596;SDS011;40226;50.874;4.394;2024-03-02T08:25:53;7.10;;;1.90;;
23596;SDS011;40226;50.874;4.394;2024-03-02T08:28:19;8.32;;;1.70;;
23596;SDS011;40226;50.874;4.394;2024-03-02T08:30:45;7.15;;;1.50;;
23596;SDS011;40226;50.874;4.394;2024-03-02T08:33:11;7.68;;;2.40;;
23596;SDS011;40226;50.874;4.394;2024-03-02T08:35:36;8.60;;;1.42;;
23596;SDS011;40226;50.874;4.394;2024-03-02T08:38:02;8.48;;;1.75;;
23596;SDS011;40226;50.874;4.394;2024-03-02T08:40:29;14.70;;;2.17;;
23596;SDS011;40226;50.874;4.394;2024-03-02T08:42:55;14.38;;;5.38;;
23596;SDS011;40226;50.874;4.394;2024-03-02T08:45:20;10.95;;;2.28;;
23596;SDS011;40226;50.874;4.394;2024-03-02T08:47:46;8.65;;;1.80;;
23596;SDS011;40226;50.874;4.394;2024-03-02T08:50:12;10.00;;;1.90;;
23596;SDS011;40226;50.874;4.394;2024-03-02T08:52:38;9.23;;;1.85;;
23596;SDS011;40226;50.874;4.394;2024-03-02T08:55:04;7.95;;;1.75;;
23596;SDS011;40226;50.874;4.394;2024-03-02T08:57:30;9.75;;;1.65;;
23596;SDS011;40226;50.874;4.394;2024-03-02T08:59:56;7.85;;;1.70;;
23596;SDS011;40226;50.874;4.394;2024-03-02T09:02:22;8.02;;;1.80;;
23596;SDS011;40226;50.874;4.394;2024-03-02T09:04:48;10.13;;;1.67;;
23596;SDS011;40226;50.874;4.394;2024-03-02T09:07:14;6.85;;;1.52;;
23596;SDS011;40226;50.874;4.394;2024-03-02T09:09:40;9.55;;;2.13;;
23596;SDS011;40226;50.874;4.394;2024-03-02T09:12:06;6.60;;;1.50;;
23596;SDS011;40226;50.874;4.394;2024-03-02T09:14:32;11.73;;;1.52;;
23596;SDS011;40226;50.874;4.394;2024-03-02T09:16:58;10.82;;;1.80;;
23596;SDS011;40226;50.874;4.394;2024-03-02T09:19:24;7.70;;;1.55;;
23596;SDS011;40226;50.874;4.394;2024-03-02T09:21:49;9.10;;;1.70;;
23596;SDS011;40226;50.874;4.394;2024-03-02T09:24:15;8.40;;;1.70;;
23596;SDS011;40226;50.874;4.394;2024-03-02T09:26:41;8.20;;;1.60;;
23596;SDS011;40226;50.874;4.394;2024-03-02T09:29:06;8.32;;;1.98;;
23596;SDS011;40226;50.874;4.394;2024-03-02T09:31:32;10.52;;;1.83;;
23596;SDS011;40226;50.874;4.394;2024-03-02T09:33:57;13.25;;;2.13;;
23596;SDS011;40226;50.874;4.394;2024-03-02T09:36:23;10.23;;;1.63;;
23596;SDS011;40226;50.874;4.394;2024-03-02T09:38:49;8.75;;;1.77;;
23596;SDS011;40226;50.874;4.394;2024-03-02T09:41:15;8.45;;;1.50;;
23596;SDS011;40226;50.874;4.394;2024-03-02T09:43:41;17.27;;;2.00;;
23596;SDS011;40226;50.874;4.394;2024-03-02T09:46:08;8.35;;;2.03;;
23596;SDS011;40226;50.874;4.394;2024-03-02T09:48:34;11.80;;;1.98;;
23596;SDS011;40226;50.874;4.394;2024-03-02T09:51:00;9.25;;;1.63;;
23596;SDS011;40226;50.874;4.394;2024-03-02T09:53:31;10.10;;;2.00;;
23596;SDS011;40226;50.874;4.394;2024-03-02T09:55:58;5.88;;;1.42;;
23596;SDS011;40226;50.874;4.394;2024-03-02T09:58:25;5.72;;;1.70;;
23596;SDS011;40226;50.874;4.394;2024-03-02T10:00:51;9.63;;;1.92;;
23596;SDS011;40226;50.874;4.394;2024-03-02T10:03:17;12.27;;;1.92;;
23596;SDS011;40226;50.874;4.394;2024-03-02T10:05:43;11.07;;;1.55;;
23596;SDS011;40226;50.874;4.394;2024-03-02T10:08:09;8.27;;;1.90;;
23596;SDS011;40226;50.874;4.394;2024-03-02T10:10:38;9.40;;;1.90;;
23596;SDS011;40226;50.874;4.394;2024-03-02T10:13:07;10.55;;;1.73;;
23596;SDS011;40226;50.874;4.394;2024-03-02T10:15:33;10.38;;;1.88;;
23596;SDS011;40226;50.874;4.394;2024-03-02T10:17:59;10.93;;;2.22;;
23596;SDS011;40226;50.874;4.394;2024-03-02T10:20:25;9.15;;;2.28;;
23596;SDS011;40226;50.874;4.394;2024-03-02T10:22:54;10.20;;;2.60;;
23596;SDS011;40226;50.874;4.394;2024-03-02T10:27:58;5.45;;;1.52;;
23596;SDS011;40226;50.874;4.394;2024-03-02T10:30:28;10.65;;;1.60;;
23596;SDS011;40226;50.874;4.394;2024-03-02T10:32:54;8.15;;;2.00;;
23596;SDS011;40226;50.874;4.394;2024-03-02T10:35:23;11.38;;;2.25;;
23596;SDS011;40226;50.874;4.394;2024-03-02T10:37:51;8.93;;;2.38;;
23596;SDS011;40226;50.874;4.394;2024-03-02T10:40:17;8.82;;;1.73;;
23596;SDS011;40226;50.874;4.394;2024-03-02T10:42:46;11.85;;;2.40;;
23596;SDS011;40226;50.874;4.394;2024-03-02T10:45:12;10.30;;;1.77;;
23596;SDS011;40226;50.874;4.394;2024-03-02T10:47:41;8.45;;;1.58;;
23596;SDS011;40226;50.874;4.394;2024-03-02T10:50:08;13.32;;;1.60;;
23596;SDS011;40226;50.874;4.394;2024-03-02T10:52:37;8.82;;;1.70;;
23596;SDS011;40226;50.874;4.394;2024-03-02T11:00:21;10.32;;;1.67;;
23596;SDS011;40226;50.874;4.394;2024-03-02T11:02:53;9.65;;;1.83;;
23596;SDS011;40226;50.874;4.394;2024-03-02T11:05:27;6.47;;;1.50;;
23596;SDS011;40226;50.874;4.394;2024-03-02T11:08:04;9.13;;;2.15;;
23596;SDS011;40226;50.874;4.394;2024-03-02T11:10:51;5.20;;;1.60;;
23596;SDS011;40226;50.874;4.394;2024-03-02T11:13:24;5.53;;;1.40;;
23596;SDS011;40226;50.874;4.394;2024-03-02T11:15:55;7.63;;;1.60;;
23596;SDS011;40226;50.874;4.394;2024-03-02T11:18:29;10.43;;;2.13;;
23596;SDS011;40226;50.874;4.394;2024-03-02T11:20:56;8.20;;;1.70;;
23596;SDS011;40226;50.874;4.394;2024-03-02T11:23:31;7.18;;;1.50;;
23596;SDS011;40226;50.874;4.394;2024-03-02T11:26:20;6.45;;;1.60;;
23596;SDS011;40226;50.874;4.394;2024-03-02T11:28:49;6.78;;;1.48;;
23596;SDS011;40226;50.874;4.394;2024-03-02T11:31:15;7.93;;;1.88;;
23596;SDS011;40226;50.874;4.394;2024-03-02T11:33:41;10.70;;;1.80;;
23596;SDS011;40226;50.874;4.394;2024-03-02T11:36:08;10.60;;;1.80;;
23596;SDS011;40226;50.874;4.394;2024-03-02T11:38:34;9.07;;;1.63;;
23596;SDS011;40226;50.874;4.394;2024-03-02T11:41:01;12.25;;;1.80;;
23596;SDS011;40226;50.874;4.394;2024-03-02T11:43:28;8.65;;;1.70;;
23596;SDS011;40226;50.874;4.394;2024-03-02T11:45:58;16.73;;;5.28;;
23596;SDS011;40226;50.874;4.394;2024-03-02T11:48:25;6.28;;;1.52;;
23596;SDS011;40226;50.874;4.394;2024-03-02T11:50:51;8.82;;;1.83;;
23596;SDS011;40226;50.874;4.394;2024-03-02T11:53:17;7.47;;;1.35;;
23596;SDS011;40226;50.874;4.394;2024-03-02T11:55:44;8.90;;;2.10;;
23596;SDS011;40226;50.874;4.394;2024-03-02T11:58:12;12.82;;;2.25;;
23596;SDS011;40226;50.874;4.394;2024-03-02T12:00:38;6.53;;;1.40;;
23596;SDS011;40226;50.874;4.394;2024-03-02T12:03:05;7.68;;;1.60;;
23596;SDS011;40226;50.874;4.394;2024-03-02T12:05:32;6.00;;;1.20;;
23596;SDS011;40226;50.874;4.394;2024-03-02T12:07:58;5.82;;;1.48;;
23596;SDS011;40226;50.874;4.394;2024-03-02T12:10:26;6.78;;;1.52;;
23596;SDS011;40226;50.874;4.394;2024-03-02T12:12:57;6.07;;;1.70;;
23596;SDS011;40226;50.874;4.394;2024-03-02T12:15:31;5.88;;;1.50;;
23596;SDS011;40226;50.874;4.394;2024-03-02T12:17:59;6.80;;;1.60;;
23596;SDS011;40226;50.874;4.394;2024-03-02T12:20:26;8.43;;;1.92;;
23596;SDS011;40226;50.874;4.394;2024-03-02T12:22:54;9.73;;;2.05;;
23596;SDS011;40226;50.874;4.394;2024-03-02T12:25:23;8.70;;;1.65;;
23596;SDS011;40226;50.874;4.394;2024-03-02T12:27:50;8.15;;;1.48;;
23596;SDS011;40226;50.874;4.394;2024-03-02T12:30:19;6.53;;;1.30;;
23596;SDS011;40226;50.874;4.394;2024-03-02T12:32:45;5.38;;;1.77;;
23596;SDS011;40226;50.874;4.394;2024-03-02T12:35:11;8.95;;;1.33;;
23596;SDS011;40226;50.874;4.394;2024-03-02T12:37:46;5.43;;;1.90;;
23596;SDS011;40226;50.874;4.394;2024-03-02T12:40:13;6.00;;;1.40;;
23596;SDS011;40226;50.874;4.394;2024-03-02T12:42:39;5.95;;;1.40;;
23596;SDS011;40226;50.874;4.394;2024-03-02T12:45:06;5.68;;;1.63;;
23596;SDS011;40226;50.874;4.394;2024-03-02T12:47:35;5.70;;;1.30;;
23596;SDS011;40226;50.874;4.394;2024-03-02T12:50:02;4.90;;;1.20;;
23596;SDS011;40226;50.874;4.394;2024-03-02T12:52:28;4.32;;;1.00;;
23596;SDS011;40226;50.874;4.394;2024-03-02T12:54:54;8.55;;;1.27;;
23596;SDS011;40226;50.874;4.394;2024-03-02T12:57:25;6.47;;;1.17;;
23596;SDS011;40226;50.874;4.394;2024-03-02T12:59:52;4.20;;;0.93;;
23596;SDS011;40226;50.874;4.394;2024-03-02T13:02:23;7.93;;;2.08;;
23596;SDS011;40226;50.874;4.394;2024-03-02T13:04:52;3.88;;;0.88;;
23596;SDS011;40226;50.874;4.394;2024-03-02T13:07:22;2.33;;;0.93;;
23596;SDS011;40226;50.874;4.394;2024-03-02T13:09:49;3.00;;;1.38;;
23596;SDS011;40226;50.874;4.394;2024-03-02T13:12:15;4.03;;;0.80;;
23596;SDS011;40226;50.874;4.394;2024-03-02T13:14:42;3.95;;;0.90;;
23596;SDS011;40226;50.874;4.394;2024-03-02T13:17:08;5.05;;;1.30;;
23596;SDS011;40226;50.874;4.394;2024-03-02T13:19:34;6.22;;;1.50;;
23596;SDS011;40226;50.874;4.394;2024-03-02T13:22:00;6.55;;;1.65;;
23596;SDS011;40226;50.874;4.394;2024-03-02T13:24:29;4.18;;;1.30;;
23596;SDS011;40226;50.874;4.394;2024-03-02T13:26:55;4.10;;;1.15;;
23596;SDS011;40226;50.874;4.394;2024-03-02T13:29:23;3.92;;;1.15;;
23596;SDS011;40226;50.874;4.394;2024-03-02T13:31:49;7.15;;;1.70;;
23596;SDS011;40226;50.874;4.394;2024-03-02T13:34:15;4.30;;;1.20;;
23596;SDS011;40226;50.874;4.394;2024-03-02T13:36:41;7.03;;;0.98;;
23596;SDS011;40226;50.874;4.394;2024-03-02T13:39:06;3.25;;;1.00;;
23596;SDS011;40226;50.874;4.394;2024-03-02T13:41:35;5.38;;;1.88;;
23596;SDS011;40226;50.874;4.394;2024-03-02T13:44:01;5.25;;;1.27;;
23596;SDS011;40226;50.874;4.394;2024-03-02T13:46:27;4.45;;;1.27;;
23596;SDS011;40226;50.874;4.394;2024-03-02T13:48:53;5.15;;;1.60;;
23596;SDS011;40226;50.874;4.394;2024-03-02T13:51:19;5.93;;;1.50;;
23596;SDS011;40226;50.874;4.394;2024-03-02T13:53:45;5.38;;;1.50;;
23596;SDS011;40226;50.874;4.394;2024-03-02T13:56:11;8.35;;;1.60;;
23596;SDS011;40226;50.874;4.394;2024-03-02T13:58:36;3.95;;;1.20;;
23596;SDS011;40226;50.874;4.394;2024-03-02T14:01:02;6.20;;;1.67;;
23596;SDS011;40226;50.874;4.394;2024-03-02T14:03:29;6.35;;;1.52;;
23596;SDS011;40226;50.874;4.394;2024-03-02T14:05:55;4.78;;;1.30;;
23596;SDS011;40226;50.874;4.394;2024-03-02T14:08:21;6.43;;;1.23;;
23596;SDS011;40226;50.874;4.394;2024-03-02T14:10:47;5.45;;;1.42;;
23596;SDS011;40226;50.874;4.394;2024-03-02T14:13:12;5.03;;;1.35;;
23596;SDS011;40226;50.874;4.394;2024-03-02T14:15:38;6.10;;;1.00;;
23596;SDS011;40226;50.874;4.394;2024-03-02T14:18:05;10.43;;;2.33;;
23596;SDS011;40226;50.874;4.394;2024-03-02T14:20:30;3.80;;;1.27;;
23596;SDS011;40226;50.874;4.394;2024-03-02T14:22:57;3.58;;;1.40;;
23596;SDS011;40226;50.874;4.394;2024-03-02T14:25:24;3.13;;;1.50;;
23596;SDS011;40226;50.874;4.394;2024-03-02T14:27:50;4.18;;;1.98;;
23596;SDS011;40226;50.874;4.394;2024-03-02T14:30:16;4.40;;;1.55;;
23596;SDS011;40226;50.874;4.394;2024-03-02T14:32:41;5.05;;;1.70;;
23596;SDS011;40226;50.874;4.394;2024-03-02T14:35:07;4.82;;;1.63;;
23596;SDS011;40226;50.874;4.394;2024-03-02T14:37:36;5.32;;;1.92;;
23596;SDS011;40226;50.874;4.394;2024-03-02T14:40:02;6.47;;;1.95;;
23596;SDS011;40226;50.874;4.394;2024-03-02T14:42:31;5.45;;;1.60;;
23596;SDS011;40226;50.874;4.394;2024-03-02T14:44:57;5.38;;;1.30;;
23596;SDS011;40226;50.874;4.394;2024-03-02T14:47:22;5.88;;;1.13;;
23596;SDS011;40226;50.874;4.394;2024-03-02T14:49:49;3.33;;;1.40;;
23596;SDS011;40226;50.874;4.394;2024-03-02T14:52:15;5.72;;;1.58;;
23596;SDS011;40226;50.874;4.394;2024-03-02T14:54:43;6.28;;;1.70;;
23596;SDS011;40226;50.874;4.394;2024-03-02T14:57:08;4.72;;;1.35;;
23596;SDS011;40226;50.874;4.394;2024-03-02T14:59:35;5.97;;;1.50;;
23596;SDS011;40226;50.874;4.394;2024-03-02T15:02:00;5.00;;;1.95;;
23596;SDS011;40226;50.874;4.394;2024-03-02T15:04:26;6.15;;;1.50;;